QLK122D YGTH-YSSY
Flight info
| Callsign | QLK122D |
|---|---|
| Flight time | 0h 57m |
| Altitude | 23000 |
| Route | BORLI V300 AKMIR W113 TESAT |
| Aircraft | DH8D/M-SDFGHRZ/LB1 |
Departure
| Time | 2026-04-15 06:58 |
|---|---|
| Airport | Griffith Airport (YGTH) |
Arrival
| Time | 2026-04-15 07:56 |
|---|---|
| Airport | Sydney Kingsford Smith International Airport (YSSY) |
| Time | Latitude | Longitude | Altitude | Speed | Heading |
|---|---|---|---|---|---|
| 2026-04-15 06:20 | -34.25470 | 146.06215 | 438 ft | 0 kts | 156° |
| 2026-04-15 06:54 | -34.25473 | 146.06215 | 438 ft | 0 kts | 156° |
| 2026-04-15 06:55 | -34.25474 | 146.06216 | 438 ft | 0 kts | 163° |
| 2026-04-15 06:55 | -34.25482 | 146.06209 | 438 ft | 3 kts | 268° |
| 2026-04-15 06:55 | -34.25422 | 146.06183 | 436 ft | 14 kts | 339° |
| 2026-04-15 06:55 | -34.25341 | 146.06206 | 435 ft | 15 kts | 68° |
| 2026-04-15 06:56 | -34.25285 | 146.06354 | 434 ft | 22 kts | 66° |
| 2026-04-15 06:56 | -34.25212 | 146.06547 | 435 ft | 25 kts | 66° |
| 2026-04-15 06:56 | -34.25144 | 146.06731 | 440 ft | 21 kts | 65° |
| 2026-04-15 06:56 | -34.25093 | 146.06842 | 441 ft | 7 kts | 112° |
| 2026-04-15 06:57 | -34.25114 | 146.06810 | 441 ft | 4 kts | 245° |
| 2026-04-15 06:57 | -34.25114 | 146.06807 | 441 ft | 0 kts | 245° |
| 2026-04-15 06:58 | -34.25128 | 146.06773 | 441 ft | 22 kts | 245° |
| 2026-04-15 06:58 | -34.25346 | 146.06187 | 435 ft | 120 kts | 245° |
| 2026-04-15 06:58 | -34.25749 | 146.05069 | 651 ft | 154 kts | 246° |
| 2026-04-15 06:58 | -34.26229 | 146.03728 | 1301 ft | 168 kts | 248° |
| 2026-04-15 06:59 | -34.26727 | 146.02284 | 2012 ft | 181 kts | 246° |
| 2026-04-15 06:59 | -34.27598 | 146.01068 | 2430 ft | 200 kts | 212° |
| 2026-04-15 06:59 | -34.28914 | 146.00571 | 3044 ft | 204 kts | 186° |
| 2026-04-15 06:59 | -34.30330 | 146.00929 | 3560 ft | 213 kts | 148° |
| 2026-04-15 07:00 | -34.31173 | 146.02341 | 4137 ft | 219 kts | 105° |
| 2026-04-15 07:00 | -34.30981 | 146.04141 | 4711 ft | 223 kts | 60° |
| 2026-04-15 07:00 | -34.29827 | 146.05353 | 5295 ft | 223 kts | 24° |
| 2026-04-15 07:00 | -34.28372 | 146.06073 | 5938 ft | 226 kts | 22° |
| 2026-04-15 07:01 | -34.26974 | 146.06950 | 6551 ft | 231 kts | 31° |
| 2026-04-15 07:01 | -34.25921 | 146.08450 | 7118 ft | 234 kts | 70° |
| 2026-04-15 07:01 | -34.25603 | 146.10406 | 7679 ft | 238 kts | 84° |
| 2026-04-15 07:01 | -34.25431 | 146.12415 | 8275 ft | 241 kts | 86° |
| 2026-04-15 07:02 | -34.25308 | 146.14432 | 8872 ft | 244 kts | 87° |
| 2026-04-15 07:02 | -34.25213 | 146.16536 | 9442 ft | 248 kts | 89° |
| 2026-04-15 07:02 | -34.25143 | 146.18648 | 10031 ft | 250 kts | 89° |
| 2026-04-15 07:02 | -34.25090 | 146.20807 | 10622 ft | 253 kts | 90° |
| 2026-04-15 07:03 | -34.25052 | 146.22963 | 11187 ft | 255 kts | 90° |
| 2026-04-15 07:03 | -34.25019 | 146.25438 | 11794 ft | 258 kts | 90° |
| 2026-04-15 07:03 | -34.24994 | 146.27805 | 12323 ft | 262 kts | 90° |
| 2026-04-15 07:03 | -34.24975 | 146.30064 | 12866 ft | 263 kts | 91° |
| 2026-04-15 07:04 | -34.24958 | 146.32291 | 13361 ft | 265 kts | 90° |
| 2026-04-15 07:04 | -34.24944 | 146.34543 | 13826 ft | 269 kts | 90° |
| 2026-04-15 07:04 | -34.24931 | 146.36855 | 14299 ft | 271 kts | 90° |
| 2026-04-15 07:04 | -34.24918 | 146.39182 | 14786 ft | 272 kts | 91° |
| 2026-04-15 07:05 | -34.24906 | 146.41464 | 15258 ft | 273 kts | 91° |
| 2026-04-15 07:05 | -34.24894 | 146.43794 | 15674 ft | 276 kts | 91° |
| 2026-04-15 07:05 | -34.24883 | 146.46124 | 16093 ft | 278 kts | 91° |
| 2026-04-15 07:05 | -34.24870 | 146.48523 | 16542 ft | 278 kts | 91° |
| 2026-04-15 07:06 | -34.24858 | 146.50958 | 16951 ft | 280 kts | 91° |
| 2026-04-15 07:06 | -34.24845 | 146.53326 | 17316 ft | 283 kts | 90° |
| 2026-04-15 07:06 | -34.24832 | 146.55774 | 17749 ft | 283 kts | 90° |
| 2026-04-15 07:06 | -34.24819 | 146.58218 | 18120 ft | 285 kts | 91° |
| 2026-04-15 07:07 | -34.24805 | 146.60759 | 18497 ft | 287 kts | 90° |
| 2026-04-15 07:07 | -34.24790 | 146.63252 | 18898 ft | 287 kts | 91° |
| 2026-04-15 07:07 | -34.24775 | 146.65804 | 19247 ft | 289 kts | 90° |
| 2026-04-15 07:07 | -34.24760 | 146.68312 | 19513 ft | 293 kts | 90° |
| 2026-04-15 07:08 | -34.24744 | 146.70750 | 19879 ft | 293 kts | 90° |
| 2026-04-15 07:08 | -34.24727 | 146.73297 | 20221 ft | 293 kts | 90° |
| 2026-04-15 07:08 | -34.24710 | 146.75830 | 20465 ft | 297 kts | 90° |
| 2026-04-15 07:08 | -34.24692 | 146.78403 | 20794 ft | 297 kts | 90° |
| 2026-04-15 07:09 | -34.24674 | 146.80975 | 21014 ft | 300 kts | 90° |
| 2026-04-15 07:09 | -34.24654 | 146.83577 | 21322 ft | 300 kts | 90° |
| 2026-04-15 07:09 | -34.24634 | 146.86179 | 21559 ft | 301 kts | 90° |
| 2026-04-15 07:09 | -34.24614 | 146.88783 | 21813 ft | 303 kts | 90° |
| 2026-04-15 07:10 | -34.24593 | 146.91446 | 22048 ft | 305 kts | 90° |
| 2026-04-15 07:10 | -34.24571 | 146.94072 | 22267 ft | 306 kts | 90° |
| 2026-04-15 07:10 | -34.24549 | 146.96675 | 22505 ft | 307 kts | 90° |
| 2026-04-15 07:10 | -34.24526 | 146.99422 | 22708 ft | 308 kts | 90° |
| 2026-04-15 07:11 | -34.24502 | 147.02051 | 22912 ft | 310 kts | 90° |
| 2026-04-15 07:11 | -34.24478 | 147.04715 | 23082 ft | 312 kts | 90° |
| 2026-04-15 07:11 | -34.24454 | 147.07371 | 23123 ft | 318 kts | 90° |
| 2026-04-15 07:11 | -34.24429 | 147.10086 | 23136 ft | 326 kts | 90° |
| 2026-04-15 07:12 | -34.24401 | 147.12898 | 23134 ft | 333 kts | 90° |
| 2026-04-15 07:12 | -34.24374 | 147.15718 | 23140 ft | 340 kts | 90° |
| 2026-04-15 07:12 | -34.24344 | 147.18645 | 23141 ft | 346 kts | 90° |
| 2026-04-15 07:12 | -34.24314 | 147.21588 | 23141 ft | 351 kts | 90° |
| 2026-04-15 07:13 | -34.24283 | 147.24599 | 23134 ft | 355 kts | 90° |
| 2026-04-15 07:13 | -34.24249 | 147.27707 | 23137 ft | 359 kts | 90° |
| 2026-04-15 07:13 | -34.24215 | 147.30788 | 23129 ft | 360 kts | 90° |
| 2026-04-15 07:13 | -34.24180 | 147.33824 | 23133 ft | 359 kts | 90° |
| 2026-04-15 07:14 | -34.24143 | 147.36897 | 23132 ft | 359 kts | 90° |
| 2026-04-15 07:14 | -34.24106 | 147.40013 | 23130 ft | 359 kts | 90° |
| 2026-04-15 07:14 | -34.24068 | 147.43071 | 23130 ft | 359 kts | 90° |
| 2026-04-15 07:14 | -34.24030 | 147.46176 | 23136 ft | 359 kts | 90° |
| 2026-04-15 07:15 | -34.23991 | 147.49252 | 23131 ft | 359 kts | 90° |
| 2026-04-15 07:15 | -34.23951 | 147.52371 | 23133 ft | 359 kts | 90° |
| 2026-04-15 07:15 | -34.23910 | 147.55452 | 23128 ft | 359 kts | 90° |
| 2026-04-15 07:15 | -34.23870 | 147.58575 | 23129 ft | 359 kts | 90° |
| 2026-04-15 07:16 | -34.23830 | 147.61638 | 23136 ft | 359 kts | 90° |
| 2026-04-15 07:16 | -34.23788 | 147.64739 | 23132 ft | 359 kts | 90° |
| 2026-04-15 07:16 | -34.23747 | 147.67804 | 23132 ft | 359 kts | 89° |
| 2026-04-15 07:16 | -34.23705 | 147.70801 | 23133 ft | 359 kts | 90° |
| 2026-04-15 07:17 | -34.23661 | 147.73824 | 23130 ft | 359 kts | 90° |
| 2026-04-15 07:17 | -34.23615 | 147.76839 | 23127 ft | 360 kts | 89° |
| 2026-04-15 07:17 | -34.23569 | 147.79863 | 23132 ft | 360 kts | 89° |
| 2026-04-15 07:17 | -34.23523 | 147.82881 | 23128 ft | 360 kts | 90° |
| 2026-04-15 07:18 | -34.23476 | 147.85906 | 23132 ft | 360 kts | 89° |
| 2026-04-15 07:18 | -34.23429 | 147.88908 | 23140 ft | 360 kts | 89° |
| 2026-04-15 07:18 | -34.23386 | 147.91954 | 23136 ft | 360 kts | 90° |
| 2026-04-15 07:18 | -34.23342 | 147.94989 | 23132 ft | 360 kts | 90° |
| 2026-04-15 07:19 | -34.23290 | 147.98038 | 23135 ft | 360 kts | 90° |
| 2026-04-15 07:19 | -34.23238 | 148.01074 | 23138 ft | 360 kts | 90° |
| 2026-04-15 07:19 | -34.23183 | 148.04185 | 23138 ft | 360 kts | 90° |
| 2026-04-15 07:19 | -34.23128 | 148.07240 | 23138 ft | 360 kts | 90° |
| 2026-04-15 07:20 | -34.23073 | 148.10278 | 23134 ft | 360 kts | 90° |
| 2026-04-15 07:20 | -34.23015 | 148.13347 | 23137 ft | 360 kts | 89° |
| 2026-04-15 07:20 | -34.22957 | 148.16411 | 23139 ft | 360 kts | 89° |
| 2026-04-15 07:20 | -34.22898 | 148.19511 | 23137 ft | 360 kts | 89° |
| 2026-04-15 07:21 | -34.22840 | 148.22591 | 23135 ft | 361 kts | 89° |
| 2026-04-15 07:21 | -34.22781 | 148.25673 | 23137 ft | 360 kts | 89° |
| 2026-04-15 07:21 | -34.22719 | 148.28818 | 23133 ft | 360 kts | 89° |
| 2026-04-15 07:21 | -34.22659 | 148.31876 | 23134 ft | 360 kts | 89° |
| 2026-04-15 07:22 | -34.22598 | 148.34947 | 23134 ft | 361 kts | 89° |
| 2026-04-15 07:22 | -34.22538 | 148.37987 | 23137 ft | 361 kts | 89° |
| 2026-04-15 07:22 | -34.22476 | 148.41052 | 23136 ft | 361 kts | 90° |
| 2026-04-15 07:22 | -34.22414 | 148.44054 | 23136 ft | 361 kts | 90° |
| 2026-04-15 07:23 | -34.22352 | 148.47080 | 23135 ft | 361 kts | 89° |
| 2026-04-15 07:23 | -34.22288 | 148.50131 | 23137 ft | 361 kts | 89° |
| 2026-04-15 07:23 | -34.22223 | 148.53238 | 23133 ft | 361 kts | 89° |
| 2026-04-15 07:23 | -34.22157 | 148.56329 | 23137 ft | 362 kts | 90° |
| 2026-04-15 07:24 | -34.22089 | 148.59450 | 23136 ft | 362 kts | 89° |
| 2026-04-15 07:24 | -34.22023 | 148.62503 | 23140 ft | 362 kts | 89° |
| 2026-04-15 07:24 | -34.21955 | 148.65582 | 23138 ft | 362 kts | 89° |
| 2026-04-15 07:24 | -34.21886 | 148.68642 | 23141 ft | 362 kts | 89° |
| 2026-04-15 07:25 | -34.21817 | 148.71716 | 23140 ft | 362 kts | 89° |
| 2026-04-15 07:25 | -34.21747 | 148.74774 | 23137 ft | 362 kts | 89° |
| 2026-04-15 07:25 | -34.21676 | 148.77863 | 23139 ft | 362 kts | 89° |
| 2026-04-15 07:25 | -34.21605 | 148.80914 | 23138 ft | 362 kts | 89° |
| 2026-04-15 07:26 | -34.21532 | 148.83980 | 23138 ft | 362 kts | 89° |
| 2026-04-15 07:26 | -34.21460 | 148.87015 | 23138 ft | 362 kts | 89° |
| 2026-04-15 07:26 | -34.21386 | 148.90085 | 23143 ft | 362 kts | 89° |
| 2026-04-15 07:26 | -34.21313 | 148.93091 | 23146 ft | 362 kts | 89° |
| 2026-04-15 07:27 | -34.21237 | 148.96166 | 23145 ft | 362 kts | 89° |
| 2026-04-15 07:27 | -34.21162 | 148.99175 | 23148 ft | 363 kts | 89° |
| 2026-04-15 07:27 | -34.21086 | 149.02243 | 23144 ft | 363 kts | 89° |
| 2026-04-15 07:27 | -34.21009 | 149.05276 | 23141 ft | 363 kts | 89° |
| 2026-04-15 07:28 | -34.20931 | 149.08328 | 23144 ft | 363 kts | 89° |
| 2026-04-15 07:28 | -34.20852 | 149.11386 | 23148 ft | 362 kts | 89° |
| 2026-04-15 07:28 | -34.20773 | 149.14416 | 23148 ft | 363 kts | 89° |
| 2026-04-15 07:28 | -34.20692 | 149.17471 | 23147 ft | 363 kts | 89° |
| 2026-04-15 07:29 | -34.20612 | 149.20515 | 23147 ft | 363 kts | 89° |
| 2026-04-15 07:29 | -34.20530 | 149.23581 | 23148 ft | 363 kts | 89° |
| 2026-04-15 07:29 | -34.20447 | 149.26628 | 23150 ft | 363 kts | 89° |
| 2026-04-15 07:29 | -34.20364 | 149.29681 | 23149 ft | 363 kts | 89° |
| 2026-04-15 07:30 | -34.20280 | 149.32724 | 23147 ft | 364 kts | 89° |
| 2026-04-15 07:30 | -34.20196 | 149.35774 | 23144 ft | 364 kts | 89° |
| 2026-04-15 07:30 | -34.20110 | 149.38837 | 23144 ft | 364 kts | 89° |
| 2026-04-15 07:30 | -34.20024 | 149.41875 | 23147 ft | 364 kts | 89° |
| 2026-04-15 07:31 | -34.19936 | 149.44948 | 23151 ft | 364 kts | 89° |
| 2026-04-15 07:31 | -34.19848 | 149.47998 | 23153 ft | 364 kts | 89° |
| 2026-04-15 07:31 | -34.19759 | 149.51071 | 23071 ft | 368 kts | 89° |
| 2026-04-15 07:31 | -34.19668 | 149.54250 | 22751 ft | 377 kts | 89° |
| 2026-04-15 07:32 | -34.19574 | 149.57487 | 22361 ft | 381 kts | 89° |
| 2026-04-15 07:32 | -34.19478 | 149.60620 | 21961 ft | 375 kts | 89° |
| 2026-04-15 07:32 | -34.19379 | 149.63779 | 21579 ft | 370 kts | 89° |
| 2026-04-15 07:32 | -34.19284 | 149.66847 | 21196 ft | 365 kts | 89° |
| 2026-04-15 07:33 | -34.19188 | 149.69900 | 20835 ft | 360 kts | 89° |
| 2026-04-15 07:33 | -34.19095 | 149.72888 | 20473 ft | 357 kts | 89° |
| 2026-04-15 07:33 | -34.19002 | 149.75868 | 20108 ft | 355 kts | 89° |
| 2026-04-15 07:33 | -34.18909 | 149.78838 | 19735 ft | 353 kts | 89° |
| 2026-04-15 07:34 | -34.18815 | 149.81812 | 19367 ft | 351 kts | 89° |
| 2026-04-15 07:34 | -34.18721 | 149.84772 | 19010 ft | 353 kts | 89° |
| 2026-04-15 07:34 | -34.18628 | 149.87709 | 18642 ft | 355 kts | 89° |
| 2026-04-15 07:34 | -34.18531 | 149.90714 | 18278 ft | 355 kts | 89° |
| 2026-04-15 07:35 | -34.18433 | 149.93723 | 17903 ft | 356 kts | 89° |
| 2026-04-15 07:35 | -34.18336 | 149.96687 | 17533 ft | 357 kts | 89° |
| 2026-04-15 07:35 | -34.18238 | 149.99678 | 17165 ft | 357 kts | 89° |
| 2026-04-15 07:35 | -34.18138 | 150.02710 | 16789 ft | 356 kts | 90° |
| 2026-04-15 07:36 | -34.18041 | 150.05710 | 16418 ft | 355 kts | 89° |
| 2026-04-15 07:36 | -34.17942 | 150.08661 | 16032 ft | 347 kts | 89° |
| 2026-04-15 07:36 | -34.17708 | 150.11514 | 15668 ft | 339 kts | 80° |
| 2026-04-15 07:36 | -34.17141 | 150.14287 | 15323 ft | 332 kts | 76° |
| 2026-04-15 07:37 | -34.16560 | 150.16928 | 14991 ft | 327 kts | 76° |
| 2026-04-15 07:37 | -34.15986 | 150.19544 | 14651 ft | 321 kts | 76° |
| 2026-04-15 07:37 | -34.15417 | 150.22142 | 14322 ft | 318 kts | 76° |
| 2026-04-15 07:37 | -34.14853 | 150.24722 | 13980 ft | 314 kts | 76° |
| 2026-04-15 07:38 | -34.14294 | 150.27286 | 13647 ft | 313 kts | 76° |
| 2026-04-15 07:38 | -34.13744 | 150.29814 | 13330 ft | 313 kts | 76° |
| 2026-04-15 07:38 | -34.13190 | 150.32358 | 13010 ft | 313 kts | 76° |
| 2026-04-15 07:38 | -34.12633 | 150.34912 | 12692 ft | 312 kts | 76° |
| 2026-04-15 07:39 | -34.12081 | 150.37447 | 12371 ft | 312 kts | 76° |
| 2026-04-15 07:39 | -34.11525 | 150.39996 | 12028 ft | 311 kts | 76° |
| 2026-04-15 07:39 | -34.10942 | 150.42664 | 11683 ft | 307 kts | 76° |
| 2026-04-15 07:39 | -34.10384 | 150.45213 | 11363 ft | 304 kts | 76° |
| 2026-04-15 07:40 | -34.09846 | 150.47669 | 11047 ft | 302 kts | 76° |
| 2026-04-15 07:40 | -34.09306 | 150.50133 | 10724 ft | 300 kts | 76° |
| 2026-04-15 07:40 | -34.08773 | 150.52563 | 10329 ft | 300 kts | 76° |
| 2026-04-15 07:40 | -34.08259 | 150.54942 | 9995 ft | 295 kts | 76° |
| 2026-04-15 07:41 | -34.07745 | 150.57338 | 9690 ft | 290 kts | 76° |
| 2026-04-15 07:41 | -34.07196 | 150.59892 | 9357 ft | 286 kts | 76° |
| 2026-04-15 07:41 | -34.06678 | 150.62300 | 9059 ft | 284 kts | 76° |
| 2026-04-15 07:41 | -34.06180 | 150.64604 | 8759 ft | 282 kts | 76° |
| 2026-04-15 07:42 | -34.05693 | 150.66869 | 8461 ft | 281 kts | 75° |
| 2026-04-15 07:42 | -34.05198 | 150.69161 | 8169 ft | 279 kts | 75° |
| 2026-04-15 07:42 | -34.04713 | 150.71394 | 7885 ft | 276 kts | 75° |
| 2026-04-15 07:42 | -34.04228 | 150.73622 | 7596 ft | 269 kts | 74° |
| 2026-04-15 07:43 | -34.03767 | 150.75749 | 7312 ft | 262 kts | 75° |
| 2026-04-15 07:43 | -34.03313 | 150.77858 | 7052 ft | 256 kts | 74° |
| 2026-04-15 07:43 | -34.02860 | 150.79895 | 6909 ft | 248 kts | 73° |
| 2026-04-15 07:43 | -34.02390 | 150.81903 | 6805 ft | 250 kts | 73° |
| 2026-04-15 07:44 | -34.01916 | 150.83920 | 6694 ft | 249 kts | 72° |
| 2026-04-15 07:44 | -34.01444 | 150.85922 | 6591 ft | 247 kts | 72° |
| 2026-04-15 07:44 | -34.00970 | 150.87935 | 6490 ft | 246 kts | 73° |
| 2026-04-15 07:44 | -34.00512 | 150.89882 | 6380 ft | 244 kts | 73° |
| 2026-04-15 07:45 | -34.00046 | 150.91864 | 6269 ft | 241 kts | 73° |
| 2026-04-15 07:45 | -33.99593 | 150.93791 | 6164 ft | 240 kts | 73° |
| 2026-04-15 07:45 | -33.99141 | 150.95711 | 6065 ft | 239 kts | 73° |
| 2026-04-15 07:45 | -33.98684 | 150.97656 | 5958 ft | 239 kts | 73° |
| 2026-04-15 07:46 | -33.98058 | 150.99495 | 5829 ft | 235 kts | 53° |
| 2026-04-15 07:46 | -33.96832 | 151.00720 | 5679 ft | 230 kts | 21° |
| 2026-04-15 07:46 | -33.95267 | 151.01085 | 5452 ft | 229 kts | 359° |
| 2026-04-15 07:46 | -33.93670 | 151.01120 | 5218 ft | 234 kts | 359° |
| 2026-04-15 07:47 | -33.91999 | 151.01141 | 4983 ft | 238 kts | 358° |
| 2026-04-15 07:47 | -33.90333 | 151.01147 | 4755 ft | 241 kts | 358° |
| 2026-04-15 07:47 | -33.88653 | 151.01140 | 4516 ft | 239 kts | 358° |
| 2026-04-15 07:47 | -33.86983 | 151.01120 | 4304 ft | 233 kts | 358° |
| 2026-04-15 07:48 | -33.85379 | 151.01092 | 4121 ft | 228 kts | 358° |
| 2026-04-15 07:48 | -33.83814 | 151.01060 | 3939 ft | 223 kts | 358° |
| 2026-04-15 07:48 | -33.82264 | 151.01025 | 3765 ft | 222 kts | 358° |
| 2026-04-15 07:48 | -33.80682 | 151.00981 | 3601 ft | 227 kts | 358° |
| 2026-04-15 07:49 | -33.79108 | 151.00923 | 3431 ft | 225 kts | 358° |
| 2026-04-15 07:49 | -33.77535 | 151.00856 | 3259 ft | 225 kts | 359° |
| 2026-04-15 07:49 | -33.75998 | 151.00771 | 3087 ft | 213 kts | 358° |
| 2026-04-15 07:49 | -33.74579 | 151.00797 | 2998 ft | 195 kts | 16° |
| 2026-04-15 07:50 | -33.73468 | 151.01640 | 2990 ft | 190 kts | 54° |
| 2026-04-15 07:50 | -33.73014 | 151.03114 | 2993 ft | 189 kts | 83° |
| 2026-04-15 07:50 | -33.72847 | 151.04700 | 2991 ft | 192 kts | 83° |
| 2026-04-15 07:50 | -33.72667 | 151.06299 | 2989 ft | 196 kts | 83° |
| 2026-04-15 07:51 | -33.72597 | 151.07935 | 2973 ft | 195 kts | 101° |
| 2026-04-15 07:51 | -33.73227 | 151.09351 | 2982 ft | 193 kts | 132° |
| 2026-04-15 07:51 | -33.74159 | 151.10507 | 2981 ft | 194 kts | 133° |
| 2026-04-15 07:51 | -33.75097 | 151.11681 | 2982 ft | 195 kts | 133° |
| 2026-04-15 07:52 | -33.76146 | 151.12692 | 2959 ft | 195 kts | 160° |
| 2026-04-15 07:52 | -33.77480 | 151.12972 | 2980 ft | 193 kts | 168° |
| 2026-04-15 07:52 | -33.78759 | 151.13408 | 2882 ft | 191 kts | 162° |
| 2026-04-15 07:52 | -33.80068 | 151.13792 | 2614 ft | 193 kts | 166° |
| 2026-04-15 07:53 | -33.81379 | 151.14134 | 2338 ft | 189 kts | 165° |
| 2026-04-15 07:53 | -33.82631 | 151.14479 | 2056 ft | 179 kts | 165° |
| 2026-04-15 07:53 | -33.83792 | 151.14780 | 1857 ft | 165 kts | 165° |
| 2026-04-15 07:53 | -33.84877 | 151.15062 | 1599 ft | 148 kts | 164° |
| 2026-04-15 07:54 | -33.85830 | 151.15306 | 1435 ft | 134 kts | 165° |
| 2026-04-15 07:54 | -33.86741 | 151.15536 | 1280 ft | 135 kts | 165° |
| 2026-04-15 07:54 | -33.87664 | 151.15776 | 1099 ft | 134 kts | 165° |
| 2026-04-15 07:54 | -33.88578 | 151.16013 | 927 ft | 133 kts | 165° |
| 2026-04-15 07:55 | -33.89476 | 151.16249 | 753 ft | 133 kts | 165° |
| 2026-04-15 07:55 | -33.90385 | 151.16484 | 577 ft | 132 kts | 165° |
| 2026-04-15 07:55 | -33.92206 | 151.16969 | 231 ft | 132 kts | 166° |
| 2026-04-15 07:56 | -33.93110 | 151.17201 | 51 ft | 133 kts | 166° |
| 2026-04-15 07:56 | -33.93850 | 151.17397 | 30 ft | 70 kts | 167° |
| 2026-04-15 07:56 | -33.94210 | 151.17494 | 30 ft | 41 kts | 162° |
| 2026-04-15 07:56 | -33.94420 | 151.17618 | 30 ft | 19 kts | 138° |
| 2026-04-15 07:57 | -33.94510 | 151.17711 | 30 ft | 14 kts | 125° |
| 2026-04-15 07:57 | -33.94479 | 151.17781 | 30 ft | 10 kts | 354° |
| 2026-04-15 07:57 | -33.94395 | 151.17755 | 30 ft | 16 kts | 345° |
| 2026-04-15 07:57 | -33.94261 | 151.17712 | 30 ft | 21 kts | 345° |
| 2026-04-15 07:58 | -33.94118 | 151.17670 | 30 ft | 20 kts | 347° |
| 2026-04-15 07:58 | -33.93981 | 151.17631 | 30 ft | 19 kts | 346° |
| 2026-04-15 07:58 | -33.93849 | 151.17598 | 30 ft | 18 kts | 347° |
| 2026-04-15 07:58 | -33.93723 | 151.17566 | 30 ft | 19 kts | 348° |
| 2026-04-15 07:59 | -33.93584 | 151.17529 | 30 ft | 21 kts | 347° |
| 2026-04-15 07:59 | -33.93447 | 151.17502 | 30 ft | 17 kts | 7° |
| 2026-04-15 07:59 | -33.93343 | 151.17494 | 30 ft | 13 kts | 348° |
| 2026-04-15 07:59 | -33.93245 | 151.17468 | 30 ft | 15 kts | 347° |
| 2026-04-15 08:00 | -33.93136 | 151.17441 | 30 ft | 14 kts | 348° |
| 2026-04-15 08:00 | -33.93073 | 151.17491 | 30 ft | 11 kts | 72° |
| 2026-04-15 08:00 | -33.93018 | 151.17560 | 30 ft | 12 kts | 46° |
| 2026-04-15 08:00 | -33.93018 | 151.17660 | 30 ft | 12 kts | 104° |
| 2026-04-15 08:01 | -33.93056 | 151.17757 | 30 ft | 12 kts | 109° |
| 2026-04-15 08:01 | -33.93072 | 151.17862 | 30 ft | 13 kts | 100° |
| 2026-04-15 08:01 | -33.93089 | 151.17973 | 30 ft | 13 kts | 100° |
| 2026-04-15 08:01 | -33.93106 | 151.18091 | 30 ft | 14 kts | 100° |
| 2026-04-15 08:02 | -33.93060 | 151.18182 | 30 ft | 14 kts | 13° |
| 2026-04-15 08:02 | -33.92976 | 151.18199 | 30 ft | 10 kts | 10° |
| 2026-04-15 08:02 | -33.92936 | 151.18230 | 30 ft | 3 kts | 73° |
| 2026-04-15 08:02 | -33.92936 | 151.18243 | 30 ft | 0 kts | 92° |
| 2026-04-15 08:03 | -33.92936 | 151.18249 | 30 ft | 2 kts | 99° |
| 2026-04-15 08:03 | -33.92938 | 151.18257 | 30 ft | 0 kts | 101° |